sensor_id;sensor_type;location;lat;lon;timestamp;pressure;altitude;pressure_sealevel;temperature;humidity
75933;BME280;64803;52.356;5.310;2022-12-08T00:02:17;101436.50;;;3.55;100.00
75933;BME280;64803;52.356;5.310;2022-12-08T00:04:43;101430.47;;;3.53;100.00
75933;BME280;64803;52.356;5.310;2022-12-08T00:07:27;101423.47;;;3.52;100.00
75933;BME280;64803;52.356;5.310;2022-12-08T00:10:11;101418.91;;;3.54;100.00
75933;BME280;64803;52.356;5.310;2022-12-08T00:12:37;101405.63;;;3.54;100.00
75933;BME280;64803;52.356;5.310;2022-12-08T00:15:04;101404.91;;;3.52;100.00
75933;BME280;64803;52.356;5.310;2022-12-08T00:17:30;101404.16;;;3.50;100.00
75933;BME280;64803;52.356;5.310;2022-12-08T00:19:56;101393.53;;;3.50;100.00
75933;BME280;64803;52.356;5.310;2022-12-08T00:22:22;101390.16;;;3.47;100.00
75933;BME280;64803;52.356;5.310;2022-12-08T00:24:48;101384.84;;;3.47;100.00
75933;BME280;64803;52.356;5.310;2022-12-08T00:27:15;101339.00;;;3.23;100.00
75933;BME280;64803;52.356;5.310;2022-12-08T00:29:44;101383.41;;;3.55;100.00
75933;BME280;64803;52.356;5.310;2022-12-08T00:32:10;101394.03;;;3.55;100.00
75933;BME280;64803;52.356;5.310;2022-12-08T00:34:36;101384.25;;;3.55;100.00
75933;BME280;64803;52.356;5.310;2022-12-08T00:37:02;101382.78;;;3.51;100.00
75933;BME280;64803;52.356;5.310;2022-12-08T00:39:28;101375.09;;;3.48;100.00
75933;BME280;64803;52.356;5.310;2022-12-08T00:41:54;101352.75;;;3.39;100.00
75933;BME280;64803;52.356;5.310;2022-12-08T00:44:43;101361.94;;;3.47;100.00
75933;BME280;64803;52.356;5.310;2022-12-08T00:47:10;101351.78;;;3.40;100.00
75933;BME280;64803;52.356;5.310;2022-12-08T00:49:36;101348.16;;;3.30;100.00
75933;BME280;64803;52.356;5.310;2022-12-08T00:52:02;101342.38;;;3.25;100.00
75933;BME280;64803;52.356;5.310;2022-12-08T00:54:28;101341.53;;;3.25;100.00
75933;BME280;64803;52.356;5.310;2022-12-08T00:56:54;101339.84;;;3.24;100.00
75933;BME280;64803;52.356;5.310;2022-12-08T00:59:20;101345.50;;;3.30;100.00
75933;BME280;64803;52.356;5.310;2022-12-08T01:01:47;101341.28;;;3.39;100.00
75933;BME280;64803;52.356;5.310;2022-12-08T01:04:14;101331.75;;;3.36;100.00
75933;BME280;64803;52.356;5.310;2022-12-08T01:06:40;101353.00;;;3.47;100.00
75933;BME280;64803;52.356;5.310;2022-12-08T01:09:07;101273.34;;;3.03;100.00
75933;BME280;64803;52.356;5.310;2022-12-08T01:11:34;101362.91;;;3.57;100.00
75933;BME280;64803;52.356;5.310;2022-12-08T01:14:00;101357.97;;;3.52;100.00
75933;BME280;64803;52.356;5.310;2022-12-08T01:16:29;101359.38;;;3.56;100.00
75933;BME280;64803;52.356;5.310;2022-12-08T01:18:57;101350.34;;;3.59;100.00
75933;BME280;64803;52.356;5.310;2022-12-08T01:21:23;101330.19;;;3.56;100.00
75933;BME280;64803;52.356;5.310;2022-12-08T01:23:49;101325.97;;;3.54;100.00
75933;BME280;64803;52.356;5.310;2022-12-08T01:26:16;101338.53;;;3.52;100.00
75933;BME280;64803;52.356;5.310;2022-12-08T01:28:45;101354.19;;;3.55;100.00
75933;BME280;64803;52.356;5.310;2022-12-08T01:31:13;101316.91;;;3.34;100.00
75933;BME280;64803;52.356;5.310;2022-12-08T01:33:40;101363.63;;;3.59;100.00
75933;BME280;64803;52.356;5.310;2022-12-08T01:36:07;101363.50;;;3.60;100.00
75933;BME280;64803;52.356;5.310;2022-12-08T01:38:34;101343.25;;;3.59;100.00
75933;BME280;64803;52.356;5.310;2022-12-08T01:41:00;101318.97;;;3.53;100.00
75933;BME280;64803;52.356;5.310;2022-12-08T01:43:47;101327.91;;;3.52;100.00
75933;BME280;64803;52.356;5.310;2022-12-08T01:46:16;101329.81;;;3.50;100.00
75933;BME280;64803;52.356;5.310;2022-12-08T01:48:42;101321.63;;;3.41;100.00
75933;BME280;64803;52.356;5.310;2022-12-08T01:51:08;101319.56;;;3.34;100.00
75933;BME280;64803;52.356;5.310;2022-12-08T01:53:34;101330.78;;;3.37;100.00
75933;BME280;64803;52.356;5.310;2022-12-08T01:58:37;101326.81;;;3.32;100.00
75933;BME280;64803;52.356;5.310;2022-12-08T02:01:04;101322.34;;;3.32;100.00
75933;BME280;64803;52.356;5.310;2022-12-08T02:06:01;101324.03;;;3.33;100.00
75933;BME280;64803;52.356;5.310;2022-12-08T02:08:27;101320.31;;;3.36;100.00
75933;BME280;64803;52.356;5.310;2022-12-08T02:10:54;101314.88;;;3.37;100.00
75933;BME280;64803;52.356;5.310;2022-12-08T02:13:20;101318.25;;;3.39;100.00
75933;BME280;64803;52.356;5.310;2022-12-08T02:21:13;101314.03;;;3.48;100.00
75933;BME280;64803;52.356;5.310;2022-12-08T02:23:58;101317.53;;;3.49;100.00
75933;BME280;64803;52.356;5.310;2022-12-08T02:37:58;101279.63;;;3.47;100.00
75933;BME280;64803;52.356;5.310;2022-12-08T02:40:40;101295.31;;;3.50;100.00
75933;BME280;64803;52.356;5.310;2022-12-08T02:43:16;101290.13;;;3.48;100.00
75933;BME280;64803;52.356;5.310;2022-12-08T02:45:50;101291.94;;;3.47;100.00
75933;BME280;64803;52.356;5.310;2022-12-08T02:48:18;101287.59;;;3.47;100.00
75933;BME280;64803;52.356;5.310;2022-12-08T02:50:44;101286.75;;;3.46;100.00
75933;BME280;64803;52.356;5.310;2022-12-08T02:53:10;101275.78;;;3.39;100.00
75933;BME280;64803;52.356;5.310;2022-12-08T02:55:53;101235.50;;;3.12;100.00
75933;BME280;64803;52.356;5.310;2022-12-08T03:04:08;101256.00;;;3.32;100.00
75933;BME280;64803;52.356;5.310;2022-12-08T03:06:45;101244.78;;;3.29;100.00
75933;BME280;64803;52.356;5.310;2022-12-08T03:09:25;101258.41;;;3.35;100.00
75933;BME280;64803;52.356;5.310;2022-12-08T03:12:05;101210.66;;;3.13;100.00
75933;BME280;64803;52.356;5.310;2022-12-08T03:14:36;101246.59;;;3.39;100.00
75933;BME280;64803;52.356;5.310;2022-12-08T03:17:04;101243.94;;;3.39;100.00
75933;BME280;64803;52.356;5.310;2022-12-08T03:19:36;101238.38;;;3.42;100.00
75933;BME280;64803;52.356;5.310;2022-12-08T03:22:05;101227.16;;;3.39;100.00
75933;BME280;64803;52.356;5.310;2022-12-08T03:24:38;101233.53;;;3.36;100.00
75933;BME280;64803;52.356;5.310;2022-12-08T03:27:14;101228.47;;;3.33;100.00
75933;BME280;64803;52.356;5.310;2022-12-08T03:29:45;101230.19;;;3.34;100.00
75933;BME280;64803;52.356;5.310;2022-12-08T03:32:19;101224.88;;;3.34;100.00
75933;BME280;64803;52.356;5.310;2022-12-08T03:34:48;101233.06;;;3.42;100.00
75933;BME280;64803;52.356;5.310;2022-12-08T03:37:14;101239.81;;;3.47;100.00
75933;BME280;64803;52.356;5.310;2022-12-08T03:39:41;101222.69;;;3.39;100.00
75933;BME280;64803;52.356;5.310;2022-12-08T03:42:07;101208.09;;;3.34;100.00
75933;BME280;64803;52.356;5.310;2022-12-08T03:44:33;101232.31;;;3.52;100.00
75933;BME280;64803;52.356;5.310;2022-12-08T03:46:59;101221.97;;;3.49;100.00
75933;BME280;64803;52.356;5.310;2022-12-08T03:49:25;101221.09;;;3.48;100.00
75933;BME280;64803;52.356;5.310;2022-12-08T03:51:51;101211.81;;;3.42;100.00
75933;BME280;64803;52.356;5.310;2022-12-08T03:54:17;101200.22;;;3.43;100.00
75933;BME280;64803;52.356;5.310;2022-12-08T03:56:43;101198.56;;;3.42;100.00
75933;BME280;64803;52.356;5.310;2022-12-08T03:59:09;101206.50;;;3.42;100.00
75933;BME280;64803;52.356;5.310;2022-12-08T04:01:35;101212.69;;;3.43;100.00
75933;BME280;64803;52.356;5.310;2022-12-08T04:04:01;101207.38;;;3.43;100.00
75933;BME280;64803;52.356;5.310;2022-12-08T04:06:27;101177.59;;;3.28;100.00
75933;BME280;64803;52.356;5.310;2022-12-08T04:08:53;101204.59;;;3.44;100.00
75933;BME280;64803;52.356;5.310;2022-12-08T04:11:19;101211.56;;;3.45;100.00
75933;BME280;64803;52.356;5.310;2022-12-08T04:13:46;101207.72;;;3.50;100.00
75933;BME280;64803;52.356;5.310;2022-12-08T04:16:17;101215.41;;;3.53;100.00
75933;BME280;64803;52.356;5.310;2022-12-08T04:18:43;101209.16;;;3.54;100.00
75933;BME280;64803;52.356;5.310;2022-12-08T04:21:10;101210.84;;;3.55;100.00
75933;BME280;64803;52.356;5.310;2022-12-08T04:23:36;101216.88;;;3.57;100.00
75933;BME280;64803;52.356;5.310;2022-12-08T04:26:02;101175.66;;;3.30;100.00
75933;BME280;64803;52.356;5.310;2022-12-08T04:28:28;101209.38;;;3.51;100.00
75933;BME280;64803;52.356;5.310;2022-12-08T04:30:54;101220.66;;;3.43;100.00
75933;BME280;64803;52.356;5.310;2022-12-08T04:33:20;101227.06;;;3.07;99.43
75933;BME280;64803;52.356;5.310;2022-12-08T04:35:46;101219.84;;;2.87;100.00
75933;BME280;64803;52.356;5.310;2022-12-08T04:38:13;101215.50;;;2.75;100.00
75933;BME280;64803;52.356;5.310;2022-12-08T04:40:39;101193.03;;;2.57;100.00
75933;BME280;64803;52.356;5.310;2022-12-08T04:43:05;101210.28;;;2.74;100.00
75933;BME280;64803;52.356;5.310;2022-12-08T04:45:31;101212.94;;;2.74;100.00
75933;BME280;64803;52.356;5.310;2022-12-08T04:47:59;101120.47;;;2.25;100.00
75933;BME280;64803;52.356;5.310;2022-12-08T04:50:25;101207.03;;;2.81;100.00
75933;BME280;64803;52.356;5.310;2022-12-08T04:52:52;101206.78;;;2.84;100.00
75933;BME280;64803;52.356;5.310;2022-12-08T04:55:18;101182.56;;;2.78;100.00
75933;BME280;64803;52.356;5.310;2022-12-08T04:57:44;101205.59;;;2.88;100.00
75933;BME280;64803;52.356;5.310;2022-12-08T05:00:11;101193.06;;;2.90;100.00
75933;BME280;64803;52.356;5.310;2022-12-08T05:02:38;101194.03;;;2.89;100.00
75933;BME280;64803;52.356;5.310;2022-12-08T05:05:05;101196.56;;;2.91;100.00
75933;BME280;64803;52.356;5.310;2022-12-08T05:07:31;101191.25;;;2.91;100.00
75933;BME280;64803;52.356;5.310;2022-12-08T05:09:57;101197.31;;;2.93;100.00
75933;BME280;64803;52.356;5.310;2022-12-08T05:12:24;101191.41;;;2.89;100.00
75933;BME280;64803;52.356;5.310;2022-12-08T05:14:50;101181.97;;;2.85;100.00
75933;BME280;64803;52.356;5.310;2022-12-08T05:17:17;101191.41;;;2.89;100.00
75933;BME280;64803;52.356;5.310;2022-12-08T05:19:43;101173.28;;;2.83;100.00
75933;BME280;64803;52.356;5.310;2022-12-08T05:22:09;101185.47;;;2.86;100.00
75933;BME280;64803;52.356;5.310;2022-12-08T05:24:35;101184.63;;;2.85;100.00
75933;BME280;64803;52.356;5.310;2022-12-08T05:27:01;101195.25;;;2.85;100.00
75933;BME280;64803;52.356;5.310;2022-12-08T05:29:27;101186.31;;;2.86;100.00
75933;BME280;64803;52.356;5.310;2022-12-08T05:31:53;101195.00;;;2.88;100.00
75933;BME280;64803;52.356;5.310;2022-12-08T05:34:19;101178.22;;;2.88;100.00
75933;BME280;64803;52.356;5.310;2022-12-08T05:36:45;101183.53;;;2.88;100.00
75933;BME280;64803;52.356;5.310;2022-12-08T05:39:12;101177.41;;;2.87;100.00
75933;BME280;64803;52.356;5.310;2022-12-08T05:41:38;101176.81;;;2.84;100.00
75933;BME280;64803;52.356;5.310;2022-12-08T05:44:05;101178.13;;;2.78;100.00
75933;BME280;64803;52.356;5.310;2022-12-08T05:46:31;101126.88;;;2.45;100.00
75933;BME280;64803;52.356;5.310;2022-12-08T05:49:01;101165.94;;;2.65;100.00
75933;BME280;64803;52.356;5.310;2022-12-08T05:51:27;101165.34;;;2.61;100.00
75933;BME280;64803;52.356;5.310;2022-12-08T05:53:54;101160.75;;;2.52;100.00
75933;BME280;64803;52.356;5.310;2022-12-08T05:56:21;101160.75;;;2.52;100.00
75933;BME280;64803;52.356;5.310;2022-12-08T05:58:47;101158.84;;;2.54;100.00
75933;BME280;64803;52.356;5.310;2022-12-08T06:01:21;101162.44;;;2.53;100.00
75933;BME280;64803;52.356;5.310;2022-12-08T06:03:47;101160.75;;;2.52;100.00
75933;BME280;64803;52.356;5.310;2022-12-08T06:06:13;101159.06;;;2.51;100.00
75933;BME280;64803;52.356;5.310;2022-12-08T06:08:39;101156.66;;;2.48;100.00
75933;BME280;64803;52.356;5.310;2022-12-08T06:11:05;101157.84;;;2.55;100.00
75933;BME280;64803;52.356;5.310;2022-12-08T06:13:31;101157.59;;;2.58;100.00
75933;BME280;64803;52.356;5.310;2022-12-08T06:16:05;101154.63;;;2.63;100.00
75933;BME280;64803;52.356;5.310;2022-12-08T06:18:32;101163.31;;;2.65;100.00
75933;BME280;64803;52.356;5.310;2022-12-08T06:21:05;101161.38;;;2.67;100.00
75933;BME280;64803;52.356;5.310;2022-12-08T06:23:32;101154.25;;;2.67;100.00
75933;BME280;64803;52.356;5.310;2022-12-08T06:26:06;101152.56;;;2.66;100.00
75933;BME280;64803;52.356;5.310;2022-12-08T06:28:33;101153.53;;;2.65;100.00
75933;BME280;64803;52.356;5.310;2022-12-08T06:31:09;101150.66;;;2.68;100.00
75933;BME280;64803;52.356;5.310;2022-12-08T06:33:36;101155.47;;;2.63;100.00
75933;BME280;64803;52.356;5.310;2022-12-08T06:36:04;101159.81;;;2.64;100.00
75933;BME280;64803;52.356;5.310;2022-12-08T06:38:30;101158.94;;;2.64;100.00
75933;BME280;64803;52.356;5.310;2022-12-08T06:40:57;101162.56;;;2.63;100.00
75933;BME280;64803;52.356;5.310;2022-12-08T06:43:24;101156.28;;;2.64;100.00
75933;BME280;64803;52.356;5.310;2022-12-08T06:45:50;101154.50;;;2.64;100.00
75933;BME280;64803;52.356;5.310;2022-12-08T06:48:17;101155.69;;;2.60;100.00
75933;BME280;64803;52.356;5.310;2022-12-08T06:50:43;101157.53;;;2.60;100.00
75933;BME280;64803;52.356;5.310;2022-12-08T06:53:13;101159.31;;;2.59;100.00
75933;BME280;64803;52.356;5.310;2022-12-08T06:55:47;101154.97;;;2.58;100.00
75933;BME280;64803;52.356;5.310;2022-12-08T06:58:16;101104.84;;;2.33;100.00
75933;BME280;64803;52.356;5.310;2022-12-08T07:00:42;101147.13;;;2.57;100.00
75933;BME280;64803;52.356;5.310;2022-12-08T07:03:09;101152.22;;;2.60;100.00
75933;BME280;64803;52.356;5.310;2022-12-08T07:05:36;101158.34;;;2.60;100.00
75933;BME280;64803;52.356;5.310;2022-12-08T07:08:03;101152.56;;;2.55;100.00
75933;BME280;64803;52.356;5.310;2022-12-08T07:10:30;101171.59;;;2.60;100.00
75933;BME280;64803;52.356;5.310;2022-12-08T07:12:56;101163.63;;;2.60;100.00
75933;BME280;64803;52.356;5.310;2022-12-08T07:15:22;101168.94;;;2.60;100.00
75933;BME280;64803;52.356;5.310;2022-12-08T07:17:48;101158.84;;;2.54;100.00
75933;BME280;64803;52.356;5.310;2022-12-08T07:20:14;101167.28;;;2.59;100.00
75933;BME280;64803;52.356;5.310;2022-12-08T07:22:40;101176.91;;;2.60;100.00
75933;BME280;64803;52.356;5.310;2022-12-08T07:25:06;101168.34;;;2.57;100.00
75933;BME280;64803;52.356;5.310;2022-12-08T07:27:32;101171.59;;;2.60;100.00
75933;BME280;64803;52.356;5.310;2022-12-08T07:29:58;101172.31;;;2.62;100.00
75933;BME280;64803;52.356;5.310;2022-12-08T07:32:24;101171.59;;;2.60;100.00
75933;BME280;64803;52.356;5.310;2022-12-08T07:34:50;101168.81;;;2.62;100.00
75933;BME280;64803;52.356;5.310;2022-12-08T07:37:16;101178.34;;;2.64;100.00
75933;BME280;64803;52.356;5.310;2022-12-08T07:39:42;101174.84;;;2.64;100.00
75933;BME280;64803;52.356;5.310;2022-12-08T07:42:08;101185.13;;;2.68;100.00
75933;BME280;64803;52.356;5.310;2022-12-08T07:44:36;101183.41;;;2.67;100.00
75933;BME280;64803;52.356;5.310;2022-12-08T07:47:02;101183.53;;;2.66;100.00
75933;BME280;64803;52.356;5.310;2022-12-08T07:49:28;101181.00;;;2.64;100.00
75933;BME280;64803;52.356;5.310;2022-12-08T07:51:54;101172.31;;;2.62;100.00
75933;BME280;64803;52.356;5.310;2022-12-08T07:54:20;101177.63;;;2.62;100.00
75933;BME280;64803;52.356;5.310;2022-12-08T07:56:46;101178.72;;;2.60;100.00
75933;BME280;64803;52.356;5.310;2022-12-08T07:59:12;101174.50;;;2.57;100.00
75933;BME280;64803;52.356;5.310;2022-12-08T08:01:39;101177.88;;;2.59;100.00
75933;BME280;64803;52.356;5.310;2022-12-08T08:04:05;101178.72;;;2.60;100.00
75933;BME280;64803;52.356;5.310;2022-12-08T08:06:32;101174.25;;;2.60;100.00
75933;BME280;64803;52.356;5.310;2022-12-08T08:08:59;101172.56;;;2.59;100.00
75933;BME280;64803;52.356;5.310;2022-12-08T08:11:25;101170.66;;;2.61;100.00
75933;BME280;64803;52.356;5.310;2022-12-08T08:13:51;101163.75;;;2.59;100.00
75933;BME280;64803;52.356;5.310;2022-12-08T08:16:18;101166.28;;;2.60;100.00
75933;BME280;64803;52.356;5.310;2022-12-08T08:18:48;101167.28;;;2.59;100.00
75933;BME280;64803;52.356;5.310;2022-12-08T08:21:15;101170.66;;;2.61;100.00
75933;BME280;64803;52.356;5.310;2022-12-08T08:23:41;101165.34;;;2.61;100.00
75933;BME280;64803;52.356;5.310;2022-12-08T08:26:07;101161.72;;;2.62;100.00
75933;BME280;64803;52.356;5.310;2022-12-08T08:28:33;101166.78;;;2.65;100.00
75933;BME280;64803;52.356;5.310;2022-12-08T08:31:00;101165.84;;;2.66;100.00
75933;BME280;64803;52.356;5.310;2022-12-08T08:33:27;101161.25;;;2.68;100.00
75933;BME280;64803;52.356;5.310;2022-12-08T08:35:53;101165.47;;;2.71;100.00
75933;BME280;64803;52.356;5.310;2022-12-08T08:38:20;101164.38;;;2.73;100.00
75933;BME280;64803;52.356;5.310;2022-12-08T08:40:46;101178.13;;;2.78;100.00
75933;BME280;64803;52.356;5.310;2022-12-08T08:43:12;101160.75;;;2.74;100.00
75933;BME280;64803;52.356;5.310;2022-12-08T08:46:00;101176.56;;;2.87;100.00
75933;BME280;64803;52.356;5.310;2022-12-08T08:48:27;101134.28;;;2.63;100.00
75933;BME280;64803;52.356;5.310;2022-12-08T08:50:54;101175.22;;;2.92;100.00
75933;BME280;64803;52.356;5.310;2022-12-08T08:53:21;101169.66;;;2.95;100.00
75933;BME280;64803;52.356;5.310;2022-12-08T08:55:48;101174.72;;;2.98;100.00
75933;BME280;64803;52.356;5.310;2022-12-08T08:58:14;101151.63;;;2.89;100.00
75933;BME280;64803;52.356;5.310;2022-12-08T09:00:40;101182.94;;;3.06;100.00
75933;BME280;64803;52.356;5.310;2022-12-08T09:03:06;101181.00;;;3.08;100.00
75933;BME280;64803;52.356;5.310;2022-12-08T09:05:32;101186.19;;;3.10;100.00
75933;BME280;64803;52.356;5.310;2022-12-08T09:07:58;101183.41;;;3.11;100.00
75933;BME280;64803;52.356;5.310;2022-12-08T09:10:24;101123.38;;;2.77;100.00
75933;BME280;64803;52.356;5.310;2022-12-08T09:12:50;101130.13;;;2.81;100.00
75933;BME280;64803;52.356;5.310;2022-12-08T09:15:16;101178.31;;;3.19;100.00
75933;BME280;64803;52.356;5.310;2022-12-08T09:17:45;101107.72;;;2.74;100.00
75933;BME280;64803;52.356;5.310;2022-12-08T09:20:11;101184.34;;;3.21;100.00
75933;BME280;64803;52.356;5.310;2022-12-08T09:22:37;101176.53;;;3.20;100.00
75933;BME280;64803;52.356;5.310;2022-12-08T09:25:03;101186.16;;;3.21;100.00
75933;BME280;64803;52.356;5.310;2022-12-08T09:27:30;101188.94;;;3.19;100.00
75933;BME280;64803;52.356;5.310;2022-12-08T09:29:56;101179.19;;;3.20;100.00
75933;BME280;64803;52.356;5.310;2022-12-08T09:32:22;101183.50;;;3.21;100.00
75933;BME280;64803;52.356;5.310;2022-12-08T09:34:48;101195.69;;;3.23;100.00
75933;BME280;64803;52.356;5.310;2022-12-08T09:37:14;101195.69;;;3.23;100.00
75933;BME280;64803;52.356;5.310;2022-12-08T09:39:39;101199.19;;;3.24;100.00
75933;BME280;64803;52.356;5.310;2022-12-08T09:42:06;101193.75;;;3.25;100.00
75933;BME280;64803;52.356;5.310;2022-12-08T09:44:46;101185.09;;;3.23;100.00
75933;BME280;64803;52.356;5.310;2022-12-08T09:47:41;101178.78;;;3.24;100.00
75933;BME280;64803;52.356;5.310;2022-12-08T09:52:40;101188.47;;;3.25;100.00
75933;BME280;64803;52.356;5.310;2022-12-08T09:55:14;101167.97;;;3.16;100.00
75933;BME280;64803;52.356;5.310;2022-12-08T09:57:41;101183.28;;;3.24;100.00
75933;BME280;64803;52.356;5.310;2022-12-08T10:00:11;101183.41;;;3.22;100.00
75933;BME280;64803;52.356;5.310;2022-12-08T10:02:38;101176.41;;;3.21;100.00
75933;BME280;64803;52.356;5.310;2022-12-08T10:05:04;101181.69;;;3.21;100.00
75933;BME280;64803;52.356;5.310;2022-12-08T10:07:48;101182.69;;;3.20;100.00
75933;BME280;64803;52.356;5.310;2022-12-08T10:10:25;101179.78;;;3.23;100.00
75933;BME280;64803;52.356;5.310;2022-12-08T10:16:16;101164.84;;;3.22;100.00
75933;BME280;64803;52.356;5.310;2022-12-08T10:18:51;101167.22;;;3.25;100.00
75933;BME280;64803;52.356;5.310;2022-12-08T10:21:23;101163.84;;;3.23;100.00
75933;BME280;64803;52.356;5.310;2022-12-08T10:23:58;101166.38;;;3.25;100.00
75933;BME280;64803;52.356;5.310;2022-12-08T10:26:26;101160.22;;;3.24;100.00
75933;BME280;64803;52.356;5.310;2022-12-08T10:28:53;101143.09;;;3.17;100.00
75933;BME280;64803;52.356;5.310;2022-12-08T10:31:23;101158.53;;;3.23;100.00
75933;BME280;64803;52.356;5.310;2022-12-08T10:33:58;101162.19;;;3.22;100.00
75933;BME280;64803;52.356;5.310;2022-12-08T10:36:48;101155.91;;;3.23;100.00
75933;BME280;64803;52.356;5.310;2022-12-08T10:39:39;101156.88;;;3.22;100.00
75933;BME280;64803;52.356;5.310;2022-12-08T10:42:19;101152.97;;;3.26;100.00
75933;BME280;64803;52.356;5.310;2022-12-08T10:47:26;101156.34;;;3.28;100.00
75933;BME280;64803;52.356;5.310;2022-12-08T10:50:15;101151.91;;;3.29;100.00
75933;BME280;64803;52.356;5.310;2022-12-08T10:52:43;101140.69;;;3.25;100.00
75933;BME280;64803;52.356;5.310;2022-12-08T10:55:14;101139.84;;;3.25;100.00
75933;BME280;64803;52.356;5.310;2022-12-08T10:57:40;101139.72;;;3.26;100.00
75933;BME280;64803;52.356;5.310;2022-12-08T11:00:11;101138.75;;;3.27;100.00
75933;BME280;64803;52.356;5.310;2022-12-08T11:02:50;101135.38;;;3.25;100.00
75933;BME280;64803;52.356;5.310;2022-12-08T11:05:17;101137.91;;;3.27;100.00
75933;BME280;64803;52.356;5.310;2022-12-08T11:07:50;101132.00;;;3.23;100.00
75933;BME280;64803;52.356;5.310;2022-12-08T11:10:19;101129.94;;;3.27;100.00
75933;BME280;64803;52.356;5.310;2022-12-08T11:12:45;101124.78;;;3.25;100.00
75933;BME280;64803;52.356;5.310;2022-12-08T11:15:16;101126.56;;;3.25;99.98
75933;BME280;64803;52.356;5.310;2022-12-08T11:17:43;101126.31;;;3.28;100.00
75933;BME280;64803;52.356;5.310;2022-12-08T11:22:41;101111.03;;;3.20;100.00
75933;BME280;64803;52.356;5.310;2022-12-08T11:27:36;101112.72;;;3.21;100.00
75933;BME280;64803;52.356;5.310;2022-12-08T11:30:12;101113.09;;;3.17;99.85
75933;BME280;64803;52.356;5.310;2022-12-08T11:32:42;101112.38;;;3.15;100.00
75933;BME280;64803;52.356;5.310;2022-12-08T11:35:17;101109.59;;;3.16;100.00
75933;BME280;64803;52.356;5.310;2022-12-08T11:37:45;101107.41;;;3.21;100.00
75933;BME280;64803;52.356;5.310;2022-12-08T11:45:31;101107.84;;;3.37;100.00
75933;BME280;64803;52.356;5.310;2022-12-08T11:48:17;101119.19;;;3.39;100.00
75933;BME280;64803;52.356;5.310;2022-12-08T11:50:48;101109.53;;;3.38;100.00
75933;BME280;64803;52.356;5.310;2022-12-08T11:53:40;101097.50;;;3.34;100.00
75933;BME280;64803;52.356;5.310;2022-12-08T11:56:29;101103.25;;;3.39;100.00
75933;BME280;64803;52.356;5.310;2022-12-08T11:59:00;101103.91;;;3.53;100.00
75933;BME280;64803;52.356;5.310;2022-12-08T12:01:27;101107.25;;;3.66;100.00
75933;BME280;64803;52.356;5.310;2022-12-08T12:04:32;101111.00;;;3.84;100.00
75933;BME280;64803;52.356;5.310;2022-12-08T12:07:39;101120.69;;;3.85;97.69
75933;BME280;64803;52.356;5.310;2022-12-08T12:23:46;101123.78;;;3.90;96.37
75933;BME280;64803;52.356;5.310;2022-12-08T12:26:26;101119.59;;;4.08;97.03
75933;BME280;64803;52.356;5.310;2022-12-08T12:31:35;101113.88;;;3.92;95.68
75933;BME280;64803;52.356;5.310;2022-12-08T12:34:09;101117.94;;;3.96;96.47
75933;BME280;64803;52.356;5.310;2022-12-08T12:37:04;101119.09;;;3.82;96.98
75933;BME280;64803;52.356;5.310;2022-12-08T12:39:34;101120.72;;;3.74;95.30
75933;BME280;64803;52.356;5.310;2022-12-08T12:42:34;101110.78;;;3.87;96.73
75933;BME280;64803;52.356;5.310;2022-12-08T12:55:57;101078.03;;;3.86;97.85
75933;BME280;64803;52.356;5.310;2022-12-08T13:03:47;101067.28;;;3.67;97.67
75933;BME280;64803;52.356;5.310;2022-12-08T13:06:22;101079.59;;;3.68;97.30
75933;BME280;64803;52.356;5.310;2022-12-08T13:08:51;101089.03;;;3.61;98.30
75933;BME280;64803;52.356;5.310;2022-12-08T13:11:18;101080.97;;;3.63;98.58
75933;BME280;64803;52.356;5.310;2022-12-08T13:13:57;101075.75;;;3.61;98.77
75933;BME280;64803;52.356;5.310;2022-12-08T13:16:26;101073.00;;;3.63;99.31
75933;BME280;64803;52.356;5.310;2022-12-08T13:19:00;101077.78;;;3.69;98.61
75933;BME280;64803;52.356;5.310;2022-12-08T13:21:36;101079.94;;;3.75;98.71
75933;BME280;64803;52.356;5.310;2022-12-08T13:26:45;101074.81;;;3.83;98.87
75933;BME280;64803;52.356;5.310;2022-12-08T13:47:37;101069.09;;;3.67;97.57
75933;BME280;64803;52.356;5.310;2022-12-08T13:52:56;101073.44;;;3.68;97.00
75933;BME280;64803;52.356;5.310;2022-12-08T13:55:28;101074.84;;;3.72;97.97
75933;BME280;64803;52.356;5.310;2022-12-08T13:57:58;100973.28;;;3.17;97.49
75933;BME280;64803;52.356;5.310;2022-12-08T14:00:24;101063.06;;;3.65;97.76
75933;BME280;64803;52.356;5.310;2022-12-08T14:02:56;101042.84;;;3.53;97.90
75933;BME280;64803;52.356;5.310;2022-12-08T14:05:24;101065.28;;;3.60;97.21
75933;BME280;64803;52.356;5.310;2022-12-08T14:07:54;101060.50;;;3.54;98.84
75933;BME280;64803;52.356;5.310;2022-12-08T14:10:25;101067.59;;;3.53;97.61
75933;BME280;64803;52.356;5.310;2022-12-08T14:12:58;101067.16;;;3.48;98.32
75933;BME280;64803;52.356;5.310;2022-12-08T14:15:26;101065.56;;;3.45;98.41
75933;BME280;64803;52.356;5.310;2022-12-08T14:17:54;101066.81;;;3.41;99.58
75933;BME280;64803;52.356;5.310;2022-12-08T14:20:32;101066.09;;;3.39;98.49
75933;BME280;64803;52.356;5.310;2022-12-08T14:22:58;101064.53;;;3.37;98.76
75933;BME280;64803;52.356;5.310;2022-12-08T14:25:26;101009.31;;;2.99;99.52
75933;BME280;64803;52.356;5.310;2022-12-08T14:28:01;101060.56;;;3.31;100.00
75933;BME280;64803;52.356;5.310;2022-12-08T14:30:30;101065.38;;;3.37;100.00
75933;BME280;64803;52.356;5.310;2022-12-08T14:32:58;101063.44;;;3.39;99.54
75933;BME280;64803;52.356;5.310;2022-12-08T14:38:02;101053.28;;;3.44;100.00
75933;BME280;64803;52.356;5.310;2022-12-08T14:40:32;101014.78;;;3.18;99.84
75933;BME280;64803;52.356;5.310;2022-12-08T14:54:06;101053.16;;;3.46;100.00
75933;BME280;64803;52.356;5.310;2022-12-08T14:59:08;101051.66;;;3.32;99.88
75933;BME280;64803;52.356;5.310;2022-12-08T15:01:36;101036.97;;;3.17;99.90